TimeMST,TemperatureF,Dew PointF,Humidity,Sea Level PressureIn,VisibilityMPH,Wind Direction,Wind SpeedMPH,Gust SpeedMPH,PrecipitationIn,Events,Conditions,WindDirDegrees,DateUTC
12:56 AM,35.1,23.0,61,29.98,-9999.0,WSW,15.0,-,N/A,,Unknown,250,2013-01-18 07:56:00
1:56 AM,34.0,23.0,64,29.96,-9999.0,SW,15.0,-,N/A,,Unknown,230,2013-01-18 08:56:00
2:56 AM,34.0,23.0,64,29.96,-9999.0,WSW,15.0,-,N/A,,Unknown,250,2013-01-18 09:56:00
3:56 AM,35.1,21.9,59,29.94,-9999.0,West,16.1,-,N/A,,Unknown,280,2013-01-18 10:56:00
4:56 AM,36.0,21.9,57,29.92,-9999.0,West,19.6,-,N/A,,Unknown,270,2013-01-18 11:56:00
5:56 AM,35.1,21.9,59,29.92,-9999.0,West,18.4,-,N/A,,Unknown,280,2013-01-18 12:56:00
6:56 AM,36.0,21.9,57,29.92,-9999.0,West,19.6,-,N/A,,Unknown,280,2013-01-18 13:56:00
7:56 AM,37.0,23.0,57,29.93,-9999.0,West,17.3,-,N/A,,Unknown,280,2013-01-18 14:56:00
8:56 AM,37.9,23.0,55,29.95,-9999.0,West,16.1,-,N/A,,Unknown,280,2013-01-18 15:56:00
9:56 AM,42.1,24.1,49,29.94,-9999.0,West,17.3,-,N/A,,Unknown,280,2013-01-18 16:56:00
10:56 AM,43.0,24.1,47,29.92,-9999.0,West,19.6,-,N/A,,Unknown,270,2013-01-18 17:56:00
11:56 AM,45.0,26.1,48,29.89,-9999.0,West,17.3,-,N/A,,Unknown,280,2013-01-18 18:56:00
12:56 PM,46.0,26.1,46,29.87,-9999.0,West,17.3,-,N/A,,Unknown,280,2013-01-18 19:56:00
1:56 PM,46.9,26.1,44,29.86,-9999.0,West,15.0,-,N/A,,Unknown,280,2013-01-18 20:56:00
2:56 PM,44.1,26.1,49,29.86,-9999.0,West,17.3,-,N/A,,Unknown,260,2013-01-18 21:56:00
3:56 PM,43.0,25.0,49,29.86,-9999.0,West,16.1,-,N/A,,Unknown,270,2013-01-18 22:56:00
4:56 PM,39.9,26.1,58,29.87,-9999.0,WSW,11.5,-,N/A,,Unknown,250,2013-01-18 23:56:00
5:56 PM,41.0,25.0,53,29.87,-9999.0,North,-9999.0,-,N/A,,Unknown,0,2013-01-19 00:56:00
6:56 PM,39.9,25.0,55,29.87,-9999.0,North,-9999.0,-,N/A,,Unknown,0,2013-01-19 01:56:00
7:56 PM,41.0,25.0,53,29.85,-9999.0,WSW,12.7,-,N/A,,Unknown,250,2013-01-19 02:56:00
8:56 PM,39.9,25.0,55,29.87,-9999.0,West,11.5,-,N/A,,Unknown,270,2013-01-19 03:56:00
9:56 PM,39.9,25.0,55,29.87,-9999.0,West,12.7,-,N/A,,Unknown,280,2013-01-19 04:56:00
10:56 PM,39.0,25.0,57,29.87,-9999.0,West,12.7,-,N/A,,Unknown,270,2013-01-19 05:56:00
11:56 PM,37.9,25.0,60,29.87,-9999.0,West,12.7,-,N/A,,Unknown,270,2013-01-19 06:56:00